createdAt,value
2022-08-20T00:01:22.783Z,20.72
2022-08-20T00:04:30.609Z,20.73
2022-08-20T00:07:33.834Z,20.70
2022-08-20T00:10:45.240Z,20.67
2022-08-20T00:13:54.501Z,20.62
2022-08-20T00:16:58.010Z,20.56
2022-08-20T00:20:10.501Z,20.55
2022-08-20T00:23:14.619Z,20.50
2022-08-20T00:26:18.199Z,20.46
2022-08-20T00:29:23.846Z,20.48
2022-08-20T00:32:26.354Z,20.56
2022-08-20T00:35:33.311Z,20.55
2022-08-20T00:38:37.919Z,20.52
2022-08-20T00:41:41.516Z,20.45
2022-08-20T00:44:48.774Z,20.44
2022-08-20T00:47:56.283Z,20.47
2022-08-20T00:51:21.456Z,20.47
2022-08-20T00:54:55.911Z,20.47
2022-08-20T00:58:08.947Z,20.50
2022-08-20T01:01:12.404Z,20.46
2022-08-20T01:04:16.361Z,20.44
2022-08-20T01:07:21.171Z,20.44
2022-08-20T01:10:28.469Z,20.48
2022-08-20T01:13:37.636Z,20.50
2022-08-20T01:16:40.633Z,20.51
2022-08-20T01:19:51.538Z,20.50
2022-08-20T01:23:50.197Z,20.55
2022-08-20T01:26:55.092Z,20.57
2022-08-20T01:30:01.800Z,20.60
2022-08-20T01:33:18.203Z,20.62
2022-08-20T01:36:34.064Z,20.52
2022-08-20T01:39:37.622Z,20.51
2022-08-20T01:42:59.989Z,20.50
2022-08-20T01:46:04.097Z,20.50
2022-08-20T01:49:23.029Z,20.46
2022-08-20T01:52:41.475Z,20.46
2022-08-20T01:55:44.988Z,20.34
2022-08-20T01:58:59.282Z,20.34
2022-08-20T02:02:05.820Z,20.28
2022-08-20T02:05:13.195Z,20.15
2022-08-20T02:08:15.964Z,20.07
2022-08-20T02:11:19.853Z,20.01
2022-08-20T02:14:23.321Z,19.96
2022-08-20T02:17:27.544Z,19.93
2022-08-20T02:20:32.207Z,19.87
2022-08-20T02:23:40.249Z,19.83
2022-08-20T02:26:43.978Z,19.77
2022-08-20T02:29:48.187Z,19.78
2022-08-20T02:32:56.313Z,19.73
2022-08-20T02:35:59.827Z,19.70
2022-08-20T02:39:05.493Z,19.69
2022-08-20T02:42:12.499Z,19.68
2022-08-20T02:45:19.294Z,19.68
2022-08-20T02:48:23.300Z,19.67
2022-08-20T02:51:30.653Z,19.67
2022-08-20T02:54:34.506Z,19.69
2022-08-20T02:57:38.501Z,19.74
2022-08-20T03:00:45.147Z,19.77
2022-08-20T03:03:49.452Z,19.75
2022-08-20T03:07:00.659Z,19.78
2022-08-20T03:10:04.353Z,19.83
2022-08-20T03:13:12.326Z,19.81
2022-08-20T03:16:15.240Z,19.77
2022-08-20T03:19:18.353Z,19.83
2022-08-20T03:22:25.552Z,19.89
2022-08-20T03:25:29.620Z,19.90
2022-08-20T03:28:35.966Z,19.88
2022-08-20T03:31:44.188Z,19.93
2022-08-20T03:34:50.279Z,20.05
2022-08-20T03:37:53.257Z,20.02
2022-08-20T03:40:59.150Z,20.02
2022-08-20T03:44:03.546Z,20.07
2022-08-20T03:47:29.636Z,20.08
2022-08-20T03:50:53.237Z,20.05
2022-08-20T03:53:56.442Z,20.11
2022-08-20T03:57:01.163Z,20.13
2022-08-20T04:00:13.108Z,20.07
2022-08-20T04:03:16.942Z,20.16
2022-08-20T04:06:20.069Z,20.18
2022-08-20T04:09:23.395Z,20.12
2022-08-20T04:12:27.625Z,20.15
2022-08-20T04:15:31.723Z,20.16
2022-08-20T04:18:36.518Z,20.21
2022-08-20T04:21:41.407Z,20.23
2022-08-20T04:24:46.084Z,20.22
2022-08-20T04:28:15.587Z,20.23
2022-08-20T04:31:24.488Z,20.31
2022-08-20T04:34:48.167Z,20.30
2022-08-20T04:38:15.320Z,20.39
2022-08-20T04:41:40.860Z,20.36
2022-08-20T04:44:46.025Z,20.44
2022-08-20T04:47:52.300Z,20.45
2022-08-20T04:51:01.431Z,20.50
2022-08-20T04:54:08.787Z,20.55
2022-08-20T04:57:14.424Z,20.59
2022-08-20T05:00:17.564Z,20.71
2022-08-20T05:03:24.769Z,20.83
2022-08-20T05:06:31.601Z,20.91
2022-08-20T05:09:44.136Z,21.02
2022-08-20T05:13:08.584Z,21.06
2022-08-20T05:16:19.951Z,21.18
2022-08-20T05:19:26.238Z,21.27
2022-08-20T05:22:33.501Z,21.34
2022-08-20T05:25:39.641Z,21.39
2022-08-20T05:29:05.640Z,21.51
2022-08-20T05:32:08.984Z,21.60
2022-08-20T05:35:15.612Z,21.76
2022-08-20T05:38:37.624Z,21.83
2022-08-20T05:41:43.319Z,21.89
2022-08-20T05:45:11.095Z,21.88
2022-08-20T05:48:22.180Z,21.92
2022-08-20T05:51:49.868Z,22.02
2022-08-20T05:54:55.854Z,21.96
2022-08-20T05:58:31.249Z,22.16
2022-08-20T06:02:33.381Z,22.41
2022-08-20T06:05:37.855Z,22.82
2022-08-20T06:08:44.671Z,23.15
2022-08-20T06:11:50.614Z,23.53
2022-08-20T06:14:53.720Z,23.84
2022-08-20T06:18:27.753Z,23.98
2022-08-20T06:22:17.925Z,23.91
2022-08-20T06:25:50.616Z,24.27
2022-08-20T06:29:13.492Z,24.35
2022-08-20T06:32:17.309Z,24.63
2022-08-20T06:35:22.319Z,24.73
2022-08-20T06:38:25.672Z,24.68
2022-08-20T06:41:36.852Z,24.77
2022-08-20T06:44:40.305Z,24.85
2022-08-20T06:47:47.864Z,25.05
2022-08-20T06:50:54.660Z,25.23
2022-08-20T06:53:57.998Z,24.99
2022-08-20T06:57:05.093Z,24.58
2022-08-20T07:00:15.463Z,24.27
2022-08-20T07:03:22.326Z,24.25
2022-08-20T07:06:26.134Z,24.05
2022-08-20T07:09:32.130Z,23.98
2022-08-20T07:13:00.832Z,23.87
2022-08-20T07:16:08.171Z,23.56
2022-08-20T07:19:33.362Z,23.89
2022-08-20T07:23:17.167Z,23.56
2022-08-20T07:26:41.615Z,23.47
2022-08-20T07:30:27.241Z,23.16
2022-08-20T07:33:50.761Z,23.18
2022-08-20T07:37:41.876Z,22.93
2022-08-20T07:41:27.492Z,22.76
2022-08-20T07:44:39.044Z,22.71
2022-08-20T07:48:31.860Z,22.52
2022-08-20T07:52:01.191Z,21.80
2022-08-20T07:59:04.483Z,20.39
2022-08-20T08:02:55.903Z,20.13
2022-08-20T08:06:29.243Z,19.83
2022-08-20T08:09:35.923Z,19.76
2022-08-20T08:13:02.356Z,19.60
2022-08-20T08:16:10.291Z,19.58
2022-08-20T08:19:17.437Z,19.45
2022-08-20T08:22:22.222Z,19.48
2022-08-20T08:25:29.949Z,19.40
2022-08-20T08:28:54.816Z,19.37
2022-08-20T08:33:17.375Z,19.46
2022-08-20T08:36:58.851Z,19.58
2022-08-20T08:40:26.018Z,19.59
2022-08-20T08:43:53.902Z,19.60
2022-08-20T08:47:46.586Z,19.44
2022-08-20T08:51:44.042Z,19.53
2022-08-20T08:55:30.044Z,19.44
2022-08-20T08:59:12.855Z,19.41
2022-08-20T09:03:25.859Z,19.30
2022-08-20T09:07:14.700Z,19.32
2022-08-20T09:11:22.057Z,19.27
2022-08-20T09:14:48.069Z,19.21
2022-08-20T09:18:20.461Z,19.12
2022-08-20T09:22:11.805Z,19.10
2022-08-20T09:25:55.148Z,19.08
2022-08-20T09:29:38.567Z,19.05
2022-08-20T09:33:06.401Z,18.99
2022-08-20T09:36:49.315Z,18.95
2022-08-20T09:40:15.054Z,18.86
2022-08-20T09:43:48.124Z,18.88
2022-08-20T09:47:51.789Z,18.97
2022-08-20T09:50:58.210Z,18.99
2022-08-20T09:55:14.405Z,19.00
2022-08-20T09:58:27.414Z,19.01
2022-08-20T10:02:30.717Z,19.03
2022-08-20T10:06:15.366Z,19.02
2022-08-20T10:09:21.923Z,19.27
2022-08-20T10:13:21.547Z,19.51
2022-08-20T10:16:44.291Z,19.99
2022-08-20T10:19:49.819Z,21.30
2022-08-20T10:22:53.911Z,22.09
2022-08-20T10:25:57.047Z,22.13
2022-08-20T10:28:59.810Z,21.68
2022-08-20T10:32:14.836Z,21.53
2022-08-20T10:35:20.631Z,21.47
2022-08-20T10:38:26.481Z,21.29
2022-08-20T10:41:29.068Z,21.83
2022-08-20T10:44:54.040Z,22.12
2022-08-20T10:48:01.412Z,22.62
2022-08-20T10:51:05.742Z,22.74
2022-08-20T10:54:12.300Z,23.07
2022-08-20T10:57:21.392Z,22.89
2022-08-20T11:00:29.815Z,23.07
2022-08-20T11:03:36.491Z,23.49
2022-08-20T11:06:39.707Z,23.56
2022-08-20T11:09:43.863Z,23.78
2022-08-20T11:12:48.580Z,24.16
2022-08-20T11:15:53.357Z,24.60
2022-08-20T11:18:56.298Z,25.34
2022-08-20T11:21:59.656Z,25.69
2022-08-20T11:25:03.050Z,26.11
2022-08-20T11:28:10.208Z,26.11
2022-08-20T11:31:13.111Z,25.71
2022-08-20T11:34:20.957Z,25.41
2022-08-20T11:37:26.611Z,25.46
2022-08-20T11:40:31.791Z,25.61
2022-08-20T11:44:17.461Z,25.45
2022-08-20T11:47:27.362Z,25.17
2022-08-20T11:50:34.507Z,25.35
2022-08-20T11:54:00.988Z,24.86
2022-08-20T11:57:11.672Z,24.89
2022-08-20T12:00:32.311Z,25.01
2022-08-20T12:03:44.557Z,25.38
2022-08-20T12:06:47.835Z,25.05
2022-08-20T12:09:58.035Z,25.23
2022-08-20T12:13:21.192Z,25.49
2022-08-20T12:16:48.543Z,25.30
2022-08-20T12:20:12.497Z,25.32
2022-08-20T12:23:16.742Z,25.02
2022-08-20T12:26:27.107Z,24.52
2022-08-20T12:29:53.424Z,24.66
2022-08-20T12:32:56.820Z,24.83
2022-08-20T12:36:04.317Z,24.97
2022-08-20T12:39:52.008Z,24.64
2022-08-20T12:43:36.005Z,24.57
2022-08-20T12:47:28.377Z,24.57
2022-08-20T12:50:53.330Z,24.73
2022-08-20T12:54:19.570Z,24.85
2022-08-20T12:57:37.721Z,24.57
2022-08-20T13:01:04.649Z,24.66
2022-08-20T13:05:11.886Z,24.84
2022-08-20T13:08:19.467Z,24.75
2022-08-20T13:11:47.135Z,24.69
2022-08-20T13:15:18.112Z,24.50
2022-08-20T13:18:52.594Z,24.90
2022-08-20T13:22:35.976Z,24.92
2022-08-20T13:25:40.616Z,24.96
2022-08-20T13:28:43.457Z,25.01
2022-08-20T13:32:12.038Z,25.02
2022-08-20T13:35:55.757Z,25.00
2022-08-20T13:39:18.617Z,25.29
2022-08-20T13:43:04.490Z,24.99
2022-08-20T13:46:50.666Z,24.87
2022-08-20T13:50:05.168Z,24.87
2022-08-20T13:53:33.076Z,25.04
2022-08-20T13:57:17.957Z,25.37
2022-08-20T14:00:32.322Z,25.10
2022-08-20T14:03:58.200Z,25.18
2022-08-20T14:07:22.993Z,24.88
2022-08-20T14:10:33.094Z,25.35
2022-08-20T14:13:36.912Z,25.29
2022-08-20T14:16:44.451Z,25.25
2022-08-20T14:19:52.163Z,25.18
2022-08-20T14:22:55.549Z,25.04
2022-08-20T14:26:19.199Z,25.42
2022-08-20T14:29:28.881Z,25.41
2022-08-20T14:33:11.451Z,25.47
2022-08-20T14:36:36.102Z,25.43
2022-08-20T14:40:03.714Z,25.28
2022-08-20T14:43:48.679Z,25.19
2022-08-20T14:47:37.801Z,25.04
2022-08-20T14:50:44.526Z,24.95
2022-08-20T14:53:55.773Z,25.07
2022-08-20T14:57:20.642Z,24.97
2022-08-20T15:00:51.072Z,24.59
2022-08-20T15:04:15.139Z,24.58
2022-08-20T15:07:51.860Z,24.80
2022-08-20T15:11:09.242Z,24.71
2022-08-20T15:14:32.680Z,24.60
2022-08-20T15:18:17.339Z,24.78
2022-08-20T15:21:45.680Z,24.47
2022-08-20T15:25:14.769Z,24.31
2022-08-20T15:29:00.892Z,24.22
2022-08-20T15:32:52.703Z,24.19
2022-08-20T15:36:20.835Z,24.38
2022-08-20T15:40:11.265Z,24.03
2022-08-20T15:43:54.884Z,23.98
2022-08-20T15:47:17.042Z,24.03
2022-08-20T15:51:03.356Z,23.94
2022-08-20T15:54:28.027Z,23.95
2022-08-20T15:58:14.430Z,23.91
2022-08-20T16:01:43.191Z,23.62
2022-08-20T16:05:53.400Z,23.60
2022-08-20T16:10:03.456Z,23.56
2022-08-20T16:13:29.253Z,23.54
2022-08-20T16:16:44.098Z,23.46
2022-08-20T16:20:42.516Z,23.41
2022-08-20T16:24:25.255Z,23.50
2022-08-20T16:28:01.844Z,23.35
2022-08-20T16:31:16.967Z,23.31
2022-08-20T16:35:31.072Z,23.24
2022-08-20T16:39:04.558Z,23.15
2022-08-20T16:42:55.301Z,23.19
2022-08-20T16:46:51.456Z,23.09
2022-08-20T16:50:21.973Z,23.01
2022-08-20T16:53:30.820Z,22.99
2022-08-20T16:57:06.539Z,22.92
2022-08-20T17:00:36.283Z,22.84
2022-08-20T17:04:23.237Z,22.72
2022-08-20T17:08:01.920Z,22.63
2022-08-20T17:11:35.514Z,22.57
2022-08-20T17:15:02.746Z,22.56
2022-08-20T17:18:34.142Z,22.52
2022-08-20T17:22:18.039Z,22.41
2022-08-20T17:26:27.727Z,22.28
2022-08-20T17:29:35.511Z,22.15
2022-08-20T17:33:30.864Z,22.03
2022-08-20T17:37:08.207Z,21.90
2022-08-20T17:40:47.626Z,21.84
2022-08-20T17:44:01.711Z,21.75
2022-08-20T17:47:35.067Z,21.63
2022-08-20T17:50:43.968Z,21.57
2022-08-20T17:54:41.167Z,21.46
2022-08-20T17:58:12.607Z,21.35
2022-08-20T18:01:59.618Z,21.29
2022-08-20T18:05:45.674Z,21.17
2022-08-20T18:09:02.771Z,21.10
2022-08-20T18:12:56.423Z,21.03
2022-08-20T18:16:31.654Z,20.95
2022-08-20T18:19:54.926Z,20.77
2022-08-20T18:23:33.513Z,20.70
2022-08-20T18:27:20.973Z,20.63
2022-08-20T18:30:28.786Z,20.57
2022-08-20T18:34:37.999Z,20.54
2022-08-20T18:38:31.159Z,20.48
2022-08-20T18:42:22.657Z,20.44
2022-08-20T18:45:45.608Z,20.40
2022-08-20T18:49:14.198Z,20.31
2022-08-20T18:53:33.486Z,20.26
2022-08-20T18:57:20.115Z,20.24
2022-08-20T19:01:09.183Z,20.22
2022-08-20T19:04:38.882Z,20.16
2022-08-20T19:08:37.592Z,20.14
2022-08-20T19:12:30.689Z,20.17
2022-08-20T19:16:14.859Z,20.16
2022-08-20T19:20:26.552Z,20.16
2022-08-20T19:24:08.047Z,20.18
2022-08-20T19:27:42.632Z,20.19
2022-08-20T19:31:30.934Z,20.22
2022-08-20T19:34:58.798Z,20.22
2022-08-20T19:38:45.907Z,20.25
2022-08-20T19:42:23.163Z,20.27
2022-08-20T19:46:06.673Z,20.33
2022-08-20T19:49:46.743Z,20.31
2022-08-20T19:53:30.308Z,20.36
2022-08-20T19:57:24.249Z,20.37
2022-08-20T20:00:56.316Z,20.35
2022-08-20T20:04:17.925Z,20.33
2022-08-20T20:07:51.140Z,20.31
2022-08-20T20:11:20.832Z,20.34
2022-08-20T20:15:03.199Z,20.35
2022-08-20T20:18:12.279Z,20.42
2022-08-20T20:21:45.941Z,20.46
2022-08-20T20:25:40.891Z,20.48
2022-08-20T20:29:09.895Z,20.54
2022-08-20T20:33:31.909Z,20.58
2022-08-20T20:37:44.676Z,20.61
2022-08-20T20:41:31.132Z,20.62
2022-08-20T20:44:58.538Z,20.67
2022-08-20T20:48:46.543Z,20.63
2022-08-20T20:52:39.503Z,20.63
2022-08-20T20:56:43.966Z,20.65
2022-08-20T21:00:33.249Z,20.60
2022-08-20T21:04:42.450Z,20.60
2022-08-20T21:08:22.275Z,20.57
2022-08-20T21:12:27.618Z,20.54
2022-08-20T21:16:19.001Z,20.52
2022-08-20T21:20:26.921Z,20.54
2022-08-20T21:24:14.801Z,20.52
2022-08-20T21:27:47.344Z,20.51
2022-08-20T21:31:34.403Z,20.50
2022-08-20T21:35:19.916Z,20.48
2022-08-20T21:38:42.573Z,20.51
2022-08-20T21:42:53.865Z,20.48
2022-08-20T21:46:39.500Z,20.52
2022-08-20T21:50:23.800Z,20.47
2022-08-20T21:53:46.691Z,20.48
2022-08-20T21:57:19.267Z,20.48
2022-08-20T22:01:04.598Z,20.48
2022-08-20T22:05:16.637Z,20.43
2022-08-20T22:08:28.512Z,20.38
2022-08-20T22:12:27.151Z,20.38
2022-08-20T22:16:14.456Z,20.30
2022-08-20T22:20:20.796Z,20.24
2022-08-20T22:24:09.463Z,20.21
2022-08-20T22:27:17.224Z,20.14
2022-08-20T22:30:44.917Z,20.15
2022-08-20T22:34:35.719Z,20.12
2022-08-20T22:38:19.679Z,20.13
2022-08-20T22:42:26.846Z,20.08
2022-08-20T22:46:09.615Z,20.11
2022-08-20T22:49:57.053Z,20.13
2022-08-20T22:53:28.770Z,20.13
2022-08-20T22:57:32.113Z,20.12
2022-08-20T23:01:15.218Z,20.11
2022-08-20T23:04:42.323Z,20.09
2022-08-20T23:08:06.635Z,20.09
2022-08-20T23:11:53.299Z,20.05
2022-08-20T23:15:58.706Z,20.04
2022-08-20T23:19:26.342Z,20.01
2022-08-20T23:23:15.592Z,20.02
2022-08-20T23:27:24.719Z,20.00
2022-08-20T23:31:08.233Z,19.96
2022-08-20T23:35:13.023Z,19.94
2022-08-20T23:38:40.128Z,19.90
2022-08-20T23:42:14.131Z,19.87
2022-08-20T23:45:43.069Z,19.87
2022-08-20T23:49:49.870Z,19.83
2022-08-20T23:53:34.867Z,19.82
2022-08-20T23:57:43.117Z,19.77
